Time;durP1;ratioP1;P1;durP2;ratioP2;P2;SDS_P1;SDS_P2;PMS_P1;PMS_P2;Temp;Humidity;BMP_temperature;BMP_pressure;BME280_temperature;BME280_humidity;BME280_pressure;Samples;Min_cycle;Max_cycle;Signal;HPM_P1;HPM_P2
2023/10/25 00:01:47;;;;;;;;;;;;;;;16.99;56.88;100338.16;5079753;28;1077;-48
2023/10/25 00:04:13;;;;;;;;;;;;;;;16.80;56.66;100341.53;5089082;28;1050;-46
2023/10/25 00:06:38;;;;;;;;;;;;;;;16.70;56.10;100341.63;5099480;28;1049;-47
2023/10/25 00:09:04;;;;;;;;;;;;;;;16.62;55.56;100326.59;5090409;28;1078;-48
2023/10/25 00:11:30;;;;;;;;;;;;;;;16.53;55.37;100328.28;5093495;28;1146;-49
2023/10/25 00:13:55;;;;;;;;;;;;;;;16.48;55.16;100325.56;5079419;28;1139;-49
2023/10/25 00:16:21;;;;;;;;;;;;;;;16.37;55.17;100325.63;5093257;28;1907;-48
2023/10/25 00:18:46;;;;;;;;;;;;;;;16.63;56.36;100319.16;5088589;28;1098;-48
2023/10/25 00:21:12;;;;;;;;;;;;;;;17.54;56.66;100313.19;5085604;28;1085;-49
2023/10/25 00:23:37;;;;;;;;;;;;;;;16.98;57.27;100309.06;5090190;28;1058;-46
2023/10/25 00:26:03;;;;;;;;;;;;;;;16.77;56.50;100314.66;5079455;28;1074;-50
2023/10/25 00:28:29;;;;;;;;;;;;;;;16.67;56.01;100312.00;5079391;28;1109;-47
2023/10/25 00:30:54;;;;;;;;;;;;;;;16.55;55.63;100312.34;5094522;28;1094;-50
2023/10/25 00:33:20;;;;;;;;;;;;;;;16.51;55.40;100295.66;5099595;28;1054;-48
2023/10/25 00:35:45;;;;;;;;;;;;;;;16.39;55.26;100298.72;5085739;28;1906;-48
2023/10/25 00:38:11;;;;;;;;;;;;;;;17.51;56.85;100289.03;5099460;28;1054;-49
2023/10/25 00:40:37;;;;;;;;;;;;;;;17.02;57.19;100299.13;5096908;28;1082;-49
2023/10/25 00:43:15;;;;;;;;;;;;;;;16.81;56.64;100287.47;5070642;28;2068;-49
2023/10/25 00:45:50;;;;;;;;;;;;;;;16.67;56.24;100284.56;5076973;28;1294;-50
2023/10/25 00:48:16;;;;;;;;;;;;;;;16.51;55.81;100281.09;5091105;28;1121;-50
2023/10/25 00:50:41;;;;;;;;;;;;;;;16.48;55.47;100281.66;5079040;28;1016;-49
2023/10/25 00:53:07;;;;;;;;;;;;;;;16.43;55.29;100274.28;5080717;28;1173;-48
2023/10/25 00:55:33;;;;;;;;;;;;;;;17.03;56.95;100279.63;5061738;28;1126;-50
2023/10/25 00:57:58;;;;;;;;;;;;;;;17.24;56.99;100271.19;5090967;28;1991;-51
2023/10/25 01:00:25;;;;;;;;;;;;;;;16.84;56.88;100265.72;5093876;28;1141;-50
2023/10/25 01:02:51;;;;;;;;;;;;;;;16.71;56.20;100271.91;5055836;28;1425;-51
2023/10/25 01:05:16;;;;;;;;;;;;;;;16.64;55.65;100263.97;5098441;28;1061;-49
2023/10/25 01:07:42;;;;;;;;;;;;;;;16.51;55.78;100272.84;5098080;28;843;-49
2023/10/25 01:10:08;;;;;;;;;;;;;;;16.43;55.22;100269.59;5093210;28;1145;-49
2023/10/25 01:12:34;;;;;;;;;;;;;;;16.38;55.00;100264.19;5072395;28;1203;-51
2023/10/25 01:14:59;;;;;;;;;;;;;;;16.58;56.17;100265.13;5080146;28;1070;-49
2023/10/25 01:17:25;;;;;;;;;;;;;;;17.62;56.67;100263.06;5086456;28;1906;-49
2023/10/25 01:19:50;;;;;;;;;;;;;;;16.98;57.00;100265.91;5082741;28;1028;-49
2023/10/25 01:22:16;;;;;;;;;;;;;;;16.74;56.77;100266.63;5090486;28;1079;-49
2023/10/25 01:24:42;;;;;;;;;;;;;;;16.65;56.35;100262.03;5061607;28;1303;-50
2023/10/25 01:27:08;;;;;;;;;;;;;;;16.52;55.72;100260.78;5078507;28;1114;-50
2023/10/25 01:29:33;;;;;;;;;;;;;;;17.18;57.39;100259.44;5078414;28;1182;-52
2023/10/25 01:31:59;;;;;;;;;;;;;;;17.24;57.05;100257.44;5078126;28;899;-48
2023/10/25 01:34:24;;;;;;;;;;;;;;;16.92;56.78;100269.81;5091441;28;999;-51
2023/10/25 01:36:50;;;;;;;;;;;;;;;16.72;56.33;100279.03;5060010;28;1906;-50
2023/10/25 01:39:16;;;;;;;;;;;;;;;16.63;56.00;100276.06;5082595;28;1075;-48
2023/10/25 01:41:41;;;;;;;;;;;;;;;16.54;55.62;100272.31;5098068;28;1081;-49
2023/10/25 01:44:07;;;;;;;;;;;;;;;16.48;55.53;100278.91;5061502;28;1328;-50
2023/10/25 01:46:32;;;;;;;;;;;;;;;16.44;55.29;100267.69;5071552;28;1074;-50
2023/10/25 01:48:59;;;;;;;;;;;;;;;17.54;56.50;100267.25;5079735;28;1039;-50
2023/10/25 01:51:25;;;;;;;;;;;;;;;16.97;57.23;100269.78;5089804;28;1118;-48
2023/10/25 01:53:50;;;;;;;;;;;;;;;16.79;56.66;100265.78;5092269;28;1153;-48
2023/10/25 01:56:16;;;;;;;;;;;;;;;16.60;56.13;100265.66;5074401;28;2081;-51
2023/10/25 01:58:41;;;;;;;;;;;;;;;16.54;55.65;100264.88;5062073;28;1101;-48
2023/10/25 02:01:07;;;;;;;;;;;;;;;16.47;55.58;100255.34;5070685;28;1360;-51
2023/10/25 02:03:33;;;;;;;;;;;;;;;16.46;55.01;100250.94;5097311;28;1177;-51
2023/10/25 02:05:58;;;;;;;;;;;;;;;17.47;57.03;100242.06;5097501;28;1038;-49
2023/10/25 02:08:24;;;;;;;;;;;;;;;17.19;56.88;100246.50;5085440;28;1098;-51
2023/10/25 02:10:49;;;;;;;;;;;;;;;16.91;56.81;100249.78;5069001;28;1035;-49
2023/10/25 02:13:15;;;;;;;;;;;;;;;16.76;56.10;100247.97;5081128;28;979;-51
2023/10/25 02:15:41;;;;;;;;;;;;;;;16.65;56.03;100246.41;5096734;28;1019;-51
2023/10/25 02:18:06;;;;;;;;;;;;;;;16.60;55.65;100238.22;5079080;28;1917;-49
2023/10/25 02:20:32;;;;;;;;;;;;;;;16.43;55.66;100231.19;5081372;28;873;-51
2023/10/25 02:22:57;;;;;;;;;;;;;;;16.98;56.87;100232.94;5075601;28;2294;-50
2023/10/25 02:25:25;;;;;;;;;;;;;;;17.38;56.92;100233.66;5086639;28;1142;-51
2023/10/25 02:27:51;;;;;;;;;;;;;;;16.91;56.86;100224.25;5059055;28;1055;-50
2023/10/25 02:30:16;;;;;;;;;;;;;;;16.75;56.54;100229.84;5087339;28;1039;-50
2023/10/25 02:32:42;;;;;;;;;;;;;;;16.58;56.22;100241.25;5080069;28;1094;-50
2023/10/25 02:35:08;;;;;;;;;;;;;;;16.58;55.65;100234.94;5076874;28;1090;-52
2023/10/25 02:37:33;;;;;;;;;;;;;;;16.50;55.47;100236.34;5075157;28;1909;-49
2023/10/25 02:39:59;;;;;;;;;;;;;;;16.42;55.20;100221.34;5068955;28;1062;-47
2023/10/25 02:42:24;;;;;;;;;;;;;;;16.39;55.18;100210.91;5076954;28;984;-49
2023/10/25 02:44:50;;;;;;;;;;;;;;;16.51;55.73;100209.72;5083941;28;909;-48
2023/10/25 02:47:16;;;;;;;;;;;;;;;17.67;56.88;100209.94;5061873;28;1290;-51
2023/10/25 02:49:42;;;;;;;;;;;;;;;17.08;57.07;100223.78;5096902;28;1010;-50
2023/10/25 02:52:07;;;;;;;;;;;;;;;16.83;56.63;100230.31;5078627;28;1094;-50
2023/10/25 02:54:33;;;;;;;;;;;;;;;16.72;56.08;100230.41;5096444;28;1281;-49
2023/10/25 02:56:58;;;;;;;;;;;;;;;16.59;55.68;100231.06;5096164;28;1890;-50
2023/10/25 02:59:24;;;;;;;;;;;;;;;16.54;55.59;100239.38;5078771;28;1132;-46
2023/10/25 03:01:49;;;;;;;;;;;;;;;16.42;55.51;100231.47;5065513;28;1515;-49
2023/10/25 03:04:15;;;;;;;;;;;;;;;16.38;55.32;100236.72;5096229;28;1034;-50
2023/10/25 03:06:40;;;;;;;;;;;;;;;17.42;56.88;100226.47;5096283;28;1034;-49
2023/10/25 03:09:06;;;;;;;;;;;;;;;17.07;57.00;100214.75;5068515;28;1162;-49
2023/10/25 03:11:31;;;;;;;;;;;;;;;16.77;56.64;100193.84;5072003;28;1319;-51
2023/10/25 03:13:57;;;;;;;;;;;;;;;16.68;56.10;100190.13;5083645;28;1186;-49
2023/10/25 03:16:22;;;;;;;;;;;;;;;16.53;55.92;100193.81;5095897;28;1909;-49
2023/10/25 03:18:48;;;;;;;;;;;;;;;16.49;55.67;100198.22;5096262;28;1315;-51
2023/10/25 03:21:14;;;;;;;;;;;;;;;16.40;55.23;100204.31;5064566;28;1206;-47
2023/10/25 03:23:39;;;;;;;;;;;;;;;16.36;55.11;100205.19;5096100;28;1046;-44
2023/10/25 03:26:05;;;;;;;;;;;;;;;17.19;56.84;100197.03;5096051;28;1126;-50
2023/10/25 03:28:30;;;;;;;;;;;;;;;17.21;57.01;100189.34;5074700;28;1082;-53
2023/10/25 03:30:56;;;;;;;;;;;;;;;16.85;56.81;100189.69;5067139;28;2306;-49
2023/10/25 03:33:21;;;;;;;;;;;;;;;16.64;56.22;100206.34;5080162;28;868;-49
2023/10/25 03:35:53;;;;;;;;;;;;;;;16.53;56.04;100188.31;5076253;28;1906;-48
2023/10/25 03:38:19;;;;;;;;;;;;;;;16.45;55.65;100183.44;5071059;28;1176;-49
2023/10/25 03:40:44;;;;;;;;;;;;;;;16.88;56.73;100178.09;5076076;28;1051;-49
2023/10/25 03:43:10;;;;;;;;;;;;;;;17.52;56.63;100176.03;5076454;28;1190;-51
2023/10/25 03:45:36;;;;;;;;;;;;;;;17.00;57.13;100181.31;5058165;28;981;-50
2023/10/25 03:48:02;;;;;;;;;;;;;;;16.78;56.58;100173.53;5092448;28;1042;-49
2023/10/25 03:50:28;;;;;;;;;;;;;;;16.70;56.06;100182.41;5068105;28;1136;-50
2023/10/25 03:52:53;;;;;;;;;;;;;;;16.55;55.86;100180.59;5088750;28;1126;-55
2023/10/25 03:55:19;;;;;;;;;;;;;;;16.48;55.58;100175.47;5088624;28;1206;-48
2023/10/25 03:57:44;;;;;;;;;;;;;;;16.41;55.16;100183.19;5095617;28;1905;-52
2023/10/25 04:00:11;;;;;;;;;;;;;;;16.60;56.42;100167.66;5082230;28;1170;-51
2023/10/25 04:02:40;;;;;;;;;;;;;;;17.24;56.98;100153.03;5095994;28;1178;-50
2023/10/25 04:05:06;;;;;;;;;;;;;;;16.87;57.04;100154.50;5092663;28;1126;-50
2023/10/25 04:07:32;;;;;;;;;;;;;;;16.69;56.57;100158.78;5092534;28;1411;-53
2023/10/25 04:09:57;;;;;;;;;;;;;;;16.58;56.25;100152.59;5086024;28;1038;-52
2023/10/25 04:12:23;;;;;;;;;;;;;;;16.47;55.99;100135.41;5092625;28;1419;-52
2023/10/25 04:14:48;;;;;;;;;;;;;;;16.43;55.48;100132.41;5079910;28;1180;-51
2023/10/25 04:17:14;;;;;;;;;;;;;;;16.35;55.27;100129.47;5076111;28;1906;-55
2023/10/25 04:19:39;;;;;;;;;;;;;;;17.35;57.23;100140.81;5084352;28;1150;-54
2023/10/25 04:22:05;;;;;;;;;;;;;;;17.22;57.05;100141.50;5093106;28;1186;-48
2023/10/25 04:24:31;;;;;;;;;;;;;;;16.88;56.77;100146.00;5095519;28;1121;-53
2023/10/25 04:26:56;;;;;;;;;;;;;;;16.72;56.30;100145.31;5091865;28;1094;-49
2023/10/25 04:29:22;;;;;;;;;;;;;;;16.57;55.96;100153.69;5075588;28;1128;-46
2023/10/25 04:31:47;;;;;;;;;;;;;;;16.49;55.83;100154.31;5092649;28;1213;-48
2023/10/25 04:34:12;;;;;;;;;;;;;;;16.90;56.31;100164.94;5095814;28;1057;-51
2023/10/25 04:36:38;;;;;;;;;;;;;;;16.73;54.92;100155.19;5081740;28;1968;-50
2023/10/25 04:39:04;;;;;;;;;;;;;;;16.42;53.25;100150.00;5087628;28;1197;-51
2023/10/25 04:41:30;;;;;;;;;;;;;;;16.96;55.10;100150.03;5079120;28;1074;-49
2023/10/25 04:43:56;;;;;;;;;;;;;;;16.65;53.93;100138.50;5080879;28;1059;-50
2023/10/25 04:46:21;;;;;;;;;;;;;;;16.44;52.23;100135.97;5098721;28;1133;-50
2023/10/25 04:48:47;;;;;;;;;;;;;;;16.83;52.89;100142.44;5099410;28;1162;-50
2023/10/25 04:51:13;;;;;;;;;;;;;;;16.82;52.81;100135.34;5098768;28;1090;-50
2023/10/25 04:53:39;;;;;;;;;;;;;;;16.58;51.76;100123.22;5095649;28;1394;-50
2023/10/25 04:56:04;;;;;;;;;;;;;;;16.42;50.47;100117.06;5078984;28;1976;-46
2023/10/25 04:58:30;;;;;;;;;;;;;;;16.32;49.50;100111.66;5092074;28;1066;-45
2023/10/25 05:00:55;;;;;;;;;;;;;;;16.31;49.12;100107.25;5078782;28;1126;-48
2023/10/25 05:03:21;;;;;;;;;;;;;;;16.40;49.21;100113.78;5094894;28;1063;-49
2023/10/25 05:05:46;;;;;;;;;;;;;;;17.48;52.24;100114.50;5099122;28;1030;-52
2023/10/25 05:08:12;;;;;;;;;;;;;;;16.82;51.89;100124.38;5098253;28;1150;-51
2023/10/25 05:10:38;;;;;;;;;;;;;;;16.72;51.12;100126.09;5098794;28;1038;-52
2023/10/25 05:13:03;;;;;;;;;;;;;;;17.01;51.91;100122.53;5086109;28;1187;-52
2023/10/25 05:15:29;;;;;;;;;;;;;;;16.79;50.79;100122.19;5098102;28;1398;-52
2023/10/25 05:17:55;;;;;;;;;;;;;;;16.99;51.07;100130.22;5089464;28;1973;-52
2023/10/25 05:20:20;;;;;;;;;;;;;;;17.17;51.94;100130.59;5080958;28;1162;-52
2023/10/25 05:22:49;;;;;;;;;;;;;;;16.89;50.73;100138.59;5089352;28;1066;-46
2023/10/25 05:25:15;;;;;;;;;;;;;;;17.41;51.39;100125.06;5092103;28;1236;-51
2023/10/25 05:27:41;;;;;;;;;;;;;;;17.23;51.37;100130.22;5087931;28;1174;-53
2023/10/25 05:30:09;;;;;;;;;;;;;;;16.93;50.12;100121.22;5098392;28;1090;-46
2023/10/25 05:32:38;;;;;;;;;;;;;;;16.72;49.43;100120.59;5086599;28;1030;-47
2023/10/25 05:35:05;;;;;;;;;;;;;;;16.74;48.47;100118.38;5096148;28;1102;-48
2023/10/25 05:37:30;;;;;;;;;;;;;;;16.68;48.95;100116.00;5098393;28;1913;-48
2023/10/25 05:39:56;;;;;;;;;;;;;;;16.75;51.59;100111.78;5061572;28;1105;-48
2023/10/25 05:42:23;;;;;;;;;;;;;;;17.09;54.19;100110.88;5078057;28;1003;-48
2023/10/25 05:44:51;;;;;;;;;;;;;;;16.56;55.60;100116.38;5059490;28;1039;-47
2023/10/25 05:47:21;;;;;;;;;;;;;;;17.51;56.57;100113.13;5077993;28;1055;-46
2023/10/25 05:49:47;;;;;;;;;;;;;;;17.99;57.20;100112.16;5090353;28;1143;-48
2023/10/25 05:52:12;;;;;;;;;;;;;;;16.88;58.52;100109.47;5089683;28;1220;-52
2023/10/25 05:54:38;;;;;;;;;;;;;;;16.68;59.36;100111.31;5098044;28;1146;-48
2023/10/25 05:57:04;;;;;;;;;;;;;;;17.57;60.76;100104.50;5094736;28;1984;-47
2023/10/25 05:59:29;;;;;;;;;;;;;;;18.12;59.82;100092.97;5097691;28;1112;-48
2023/10/25 06:02:01;;;;;;;;;;;;;;;16.77;59.58;100084.88;5096840;28;1062;-46
2023/10/25 06:04:27;;;;;;;;;;;;;;;16.92;62.28;100086.63;5084864;28;1141;-48
2023/10/25 06:06:52;;;;;;;;;;;;;;;17.82;61.05;100077.72;5059990;28;1205;-47
2023/10/25 06:09:18;;;;;;;;;;;;;;;18.27;59.92;100067.13;5085357;28;1097;-48
2023/10/25 06:11:44;;;;;;;;;;;;;;;16.80;59.96;100056.00;5092045;28;1065;-47
2023/10/25 06:14:09;;;;;;;;;;;;;;;16.21;58.70;100060.72;5090411;28;1054;-52
2023/10/25 06:16:35;;;;;;;;;;;;;;;17.04;63.06;100058.78;5083321;28;1906;-48
2023/10/25 06:19:00;;;;;;;;;;;;;;;17.86;61.74;100069.69;5067140;28;1156;-46
2023/10/25 06:21:26;;;;;;;;;;;;;;;18.28;60.26;100082.50;5084820;28;1202;-49
2023/10/25 06:23:52;;;;;;;;;;;;;;;16.98;60.61;100078.34;5085216;28;1065;-46
2023/10/25 06:26:17;;;;;;;;;;;;;;;16.48;60.64;100076.66;5082907;28;1155;-59
2023/10/25 06:28:43;;;;;;;;;;;;;;;17.37;63.42;100074.53;5084057;28;1085;-51
2023/10/25 06:31:12;;;;;;;;;;;;;;;18.10;61.23;100073.19;5081927;28;1034;-47
2023/10/25 06:33:37;;;;;;;;;;;;;;;17.50;60.83;100082.06;5092547;28;1174;-55
2023/10/25 06:36:03;;;;;;;;;;;;;;;16.36;59.54;100079.78;5083393;28;1921;-55
2023/10/25 06:38:29;;;;;;;;;;;;;;;16.72;62.60;100073.13;5083908;28;1092;-55
2023/10/25 06:40:54;;;;;;;;;;;;;;;17.56;63.04;100077.31;5083367;28;1126;-52
2023/10/25 06:43:20;;;;;;;;;;;;;;;18.18;61.28;100071.69;5083717;28;1121;-57
2023/10/25 06:45:46;;;;;;;;;;;;;;;17.37;61.29;100077.28;5085919;28;1078;-55
2023/10/25 06:48:11;;;;;;;;;;;;;;;16.32;59.25;100083.41;5096696;28;1077;-54
2023/10/25 06:50:37;;;;;;;;;;;;;;;16.82;63.09;100072.19;5082751;28;1105;-53
2023/10/25 06:53:03;;;;;;;;;;;;;;;17.62;63.06;100074.16;5096868;28;1169;-49
2023/10/25 06:55:28;;;;;;;;;;;;;;;18.21;61.14;100065.56;5078708;28;1101;-48
2023/10/25 06:57:54;;;;;;;;;;;;;;;17.43;61.06;100073.34;5077357;28;1913;-51
2023/10/25 07:00:20;;;;;;;;;;;;;;;16.30;59.20;100069.97;5090583;28;1373;-50
2023/10/25 07:02:52;;;;;;;;;;;;;;;16.48;60.99;100071.19;5100784;28;982;-51
2023/10/25 07:05:19;;;;;;;;;;;;;;;17.28;63.95;100077.16;5096151;28;965;-48
2023/10/25 07:07:45;;;;;;;;;;;;;;;17.99;62.13;100085.47;5096613;28;1035;-50
2023/10/25 07:10:11;;;;;;;;;;;;;;;18.40;60.46;100078.47;5094352;28;1190;-49
2023/10/25 07:12:36;;;;;;;;;;;;;;;16.77;60.59;100073.88;5096370;28;1062;-48
2023/10/25 07:15:02;;;;;;;;;;;;;;;16.08;59.10;100063.03;5081111;28;1105;-49
2023/10/25 07:17:28;;;;;;;;;;;;;;;16.96;63.92;100048.44;5084954;28;1993;-47
2023/10/25 07:19:54;;;;;;;;;;;;;;;17.87;63.17;100060.34;5087715;28;1539;-49
2023/10/25 07:22:19;;;;;;;;;;;;;;;18.32;61.51;100055.19;5090011;28;1144;-50
2023/10/25 07:24:45;;;;;;;;;;;;;;;16.92;61.25;100037.19;5090220;28;1197;-50
2023/10/25 07:27:10;;;;;;;;;;;;;;;16.15;58.90;100035.28;5086030;28;1010;-50
2023/10/25 07:29:36;;;;;;;;;;;;;;;16.79;63.22;100035.16;5078322;28;1103;-55
2023/10/25 07:32:02;;;;;;;;;;;;;;;17.57;64.02;100024.78;5095083;28;1147;-50
2023/10/25 07:34:28;;;;;;;;;;;;;;;18.18;61.88;100027.66;5084966;28;1449;-54
2023/10/25 07:36:53;;;;;;;;;;;;;;;17.54;61.77;100030.84;5084601;28;1975;-53
2023/10/25 07:39:19;;;;;;;;;;;;;;;16.49;59.81;100030.81;5093769;28;1141;-53
2023/10/25 07:41:44;;;;;;;;;;;;;;;16.08;57.31;100030.13;5095967;28;1138;-49
2023/10/25 07:44:10;;;;;;;;;;;;;;;16.55;61.56;100018.66;5095147;28;1396;-50
2023/10/25 07:46:38;;;;;;;;;;;;;;;17.22;65.30;100020.63;5095872;28;894;-57
2023/10/25 07:49:04;;;;;;;;;;;;;;;17.90;64.24;100026.75;5096775;28;1144;-56
2023/10/25 07:51:29;;;;;;;;;;;;;;;18.37;62.38;100027.59;5103342;28;1066;-52
2023/10/25 07:53:55;;;;;;;;;;;;;;;16.71;61.57;100024.81;5091072;28;1238;-57
2023/10/25 07:56:20;;;;;;;;;;;;;;;16.49;61.82;100015.16;5076133;28;1913;-48
2023/10/25 07:58:46;;;;;;;;;;;;;;;17.26;65.42;100014.25;5087183;28;1114;-51
2023/10/25 08:01:12;;;;;;;;;;;;;;;18.04;63.49;100013.84;5087024;28;1089;-58
2023/10/25 08:03:37;;;;;;;;;;;;;;;17.65;62.19;100017.78;5090543;28;1117;-54
2023/10/25 08:06:02;;;;;;;;;;;;;;;16.49;60.53;100022.59;5090687;28;1324;-56
2023/10/25 08:08:28;;;;;;;;;;;;;;;16.63;62.30;100018.03;5086638;28;1131;-57
2023/10/25 08:11:03;;;;;;;;;;;;;;;17.40;64.87;100025.31;5086499;28;1259;-48
2023/10/25 08:13:32;;;;;;;;;;;;;;;18.17;62.87;100019.69;5070796;28;1178;-59
2023/10/25 08:15:58;;;;;;;;;;;;;;;17.39;62.42;100007.19;5090865;28;1898;-58
2023/10/25 08:18:23;;;;;;;;;;;;;;;16.40;60.20;99995.78;5099373;28;1014;-57
2023/10/25 08:20:49;;;;;;;;;;;;;;;16.54;61.38;99989.63;5085496;28;1010;-54
2023/10/25 08:23:14;;;;;;;;;;;;;;;16.89;61.91;99993.06;5084565;28;1086;-56
2023/10/25 08:25:41;;;;;;;;;;;;;;;16.59;58.14;100022.47;5098317;28;1370;-53
2023/10/25 08:28:06;;;;;;;;;;;;;;;16.54;55.42;100008.81;5099486;28;1440;-54
2023/10/25 08:30:32;;;;;;;;;;;;;;;16.50;53.84;99999.53;5080721;28;1106;-53
2023/10/25 08:32:57;;;;;;;;;;;;;;;16.41;53.01;99988.34;5079375;28;1071;-55
2023/10/25 08:35:23;;;;;;;;;;;;;;;16.30;52.05;99973.97;5084112;28;1031;-47
2023/10/25 08:37:48;;;;;;;;;;;;;;;16.03;52.51;99975.34;5087816;28;1910;-52
2023/10/25 08:40:15;;;;;;;;;;;;;;;16.54;57.09;99984.13;5084948;28;1085;-60
2023/10/25 08:42:40;;;;;;;;;;;;;;;17.31;61.92;99977.63;5091851;28;1539;-56
2023/10/25 08:45:06;;;;;;;;;;;;;;;17.79;63.84;99977.41;5092450;28;1324;-60
2023/10/25 08:47:31;;;;;;;;;;;;;;;17.18;63.04;99973.69;5094584;28;845;-59
2023/10/25 08:49:57;;;;;;;;;;;;;;;16.30;60.64;99984.94;5098607;28;1050;-48
2023/10/25 08:52:24;;;;;;;;;;;;;;;16.08;58.27;99980.75;5091823;28;1107;-47
2023/10/25 08:54:49;;;;;;;;;;;;;;;16.89;64.14;99985.63;5096758;28;1253;-48
2023/10/25 08:57:16;;;;;;;;;;;;;;;17.55;66.43;99961.03;5079713;28;1910;-51
2023/10/25 08:59:43;;;;;;;;;;;;;;;18.03;65.00;99964.66;5078921;28;885;-48
2023/10/25 09:02:09;;;;;;;;;;;;;;;16.79;62.59;99968.44;5084324;28;929;-61
2023/10/25 09:04:35;;;;;;;;;;;;;;;16.12;59.78;99974.69;5099108;28;1094;-54
2023/10/25 09:07:00;;;;;;;;;;;;;;;16.12;59.61;99969.19;5089670;28;1066;-49
2023/10/25 09:09:28;;;;;;;;;;;;;;;17.10;65.06;99974.38;5080864;28;1279;-51
2023/10/25 09:11:53;;;;;;;;;;;;;;;17.51;67.84;99968.25;5060732;28;899;-47
2023/10/25 09:14:19;;;;;;;;;;;;;;;18.00;67.14;99965.25;5092597;28;1156;-56
2023/10/25 09:16:45;;;;;;;;;;;;;;;17.08;63.90;99957.34;5091071;28;1898;-54
2023/10/25 09:19:10;;;;;;;;;;;;;;;17.03;60.03;99955.50;5078497;28;1129;-51
2023/10/25 09:21:36;;;;;;;;;;;;;;;16.97;57.16;99967.69;5084485;28;1054;-52
2023/10/25 09:24:06;;;;;;;;;;;;;;;16.74;55.47;99948.16;5092938;28;937;-47
2023/10/25 09:26:32;;;;;;;;;;;;;;;16.63;54.17;99948.59;5077742;28;1365;-46
2023/10/25 09:28:58;;;;;;;;;;;;;;;16.81;53.16;99945.06;5078979;28;1012;-50
2023/10/25 09:31:27;;;;;;;;;;;;;;;16.82;52.33;99954.13;5097455;28;1358;-52
2023/10/25 09:33:53;;;;;;;;;;;;;;;16.71;51.49;99948.75;5086169;28;1401;-46
2023/10/25 09:36:19;;;;;;;;;;;;;;;16.76;51.67;99945.16;5088780;28;1910;-57
2023/10/25 09:38:44;;;;;;;;;;;;;;;16.77;52.78;99939.34;5092337;28;1358;-56
2023/10/25 09:41:11;;;;;;;;;;;;;;;16.83;52.86;99933.78;5093376;28;1078;-53
2023/10/25 09:43:37;;;;;;;;;;;;;;;16.79;51.87;99917.09;5091098;28;1328;-56
2023/10/25 09:46:05;;;;;;;;;;;;;;;16.69;50.99;99918.06;5062119;28;1182;-52
2023/10/25 09:48:30;;;;;;;;;;;;;;;16.71;50.35;99910.31;5076371;28;1312;-54
2023/10/25 09:51:06;;;;;;;;;;;;;;;16.62;50.63;99914.84;5073108;28;1335;-55
2023/10/25 09:53:37;;;;;;;;;;;;;;;16.61;50.42;99899.50;5091137;28;1228;-59
2023/10/25 09:56:03;;;;;;;;;;;;;;;16.41;51.59;99901.41;5070638;28;1964;-54
2023/10/25 09:58:33;;;;;;;;;;;;;;;15.90;51.96;99899.22;5075138;28;1278;-57
2023/10/25 10:00:59;;;;;;;;;;;;;;;16.82;57.24;99901.97;5097279;28;1276;-54
2023/10/25 10:03:30;;;;;;;;;;;;;;;16.60;58.76;99903.34;5074904;28;1320;-50
2023/10/25 10:05:55;;;;;;;;;;;;;;;16.14;57.03;99904.72;5064194;28;1194;-59
2023/10/25 10:08:22;;;;;;;;;;;;;;;15.74;54.99;99904.03;5079191;28;1085;-49
2023/10/25 10:10:47;;;;;;;;;;;;;;;15.81;53.04;99898.22;5078513;28;1536;-48
2023/10/25 10:13:19;;;;;;;;;;;;;;;15.81;52.05;99890.84;5100910;28;1705;-53
2023/10/25 10:16:05;;;;;;;;;;;;;;;15.84;51.19;99892.19;5087994;28;1010;-52
2023/10/25 10:18:31;;;;;;;;;;;;;;;15.98;51.34;99886.81;5096373;28;1375;-49
2023/10/25 10:21:00;;;;;;;;;;;;;;;15.95;50.68;99882.75;5097665;28;1217;-53
2023/10/25 10:23:53;;;;;;;;;;;;;;;15.92;50.79;99883.28;5083678;28;1022;-56
2023/10/25 10:26:37;;;;;;;;;;;;;;;16.05;50.67;99882.63;5092520;28;1122;-54
2023/10/25 10:29:03;;;;;;;;;;;;;;;16.11;50.37;99875.13;5077797;28;1418;-55
2023/10/25 10:31:29;;;;;;;;;;;;;;;16.15;50.48;99873.44;5092204;28;1075;-53
2023/10/25 10:33:54;;;;;;;;;;;;;;;16.18;50.66;99869.31;5088205;28;1133;-54
2023/10/25 10:36:26;;;;;;;;;;;;;;;16.25;50.58;99865.09;5090153;28;1959;-52
2023/10/25 10:39:14;;;;;;;;;;;;;;;16.19;49.97;99855.31;5076381;28;1202;-47
2023/10/25 10:41:40;;;;;;;;;;;;;;;16.17;49.25;99849.31;5086682;28;1027;-48
2023/10/25 10:44:05;;;;;;;;;;;;;;;16.19;49.05;99849.00;5079769;28;1070;-49
2023/10/25 10:46:31;;;;;;;;;;;;;;;16.07;48.84;99846.66;5087739;28;1094;-53
2023/10/25 10:48:59;;;;;;;;;;;;;;;16.10;48.62;99846.06;5092663;28;1252;-51
2023/10/25 10:51:25;;;;;;;;;;;;;;;16.13;48.34;99845.50;5075582;28;1114;-52
2023/10/25 10:53:51;;;;;;;;;;;;;;;16.06;48.25;99859.56;5089660;28;1237;-53
2023/10/25 10:56:16;;;;;;;;;;;;;;;16.06;48.16;99845.88;5083431;28;1906;-52
2023/10/25 10:58:42;;;;;;;;;;;;;;;16.07;47.99;99847.50;5086467;28;1118;-51
2023/10/25 11:01:08;;;;;;;;;;;;;;;16.11;47.78;99838.69;5089848;28;1129;-52
2023/10/25 11:03:34;;;;;;;;;;;;;;;16.06;47.74;99845.03;5084518;28;1118;-53
2023/10/25 11:06:00;;;;;;;;;;;;;;;16.02;47.97;99844.81;5063329;28;1440;-52
2023/10/25 11:08:26;;;;;;;;;;;;;;;15.98;47.95;99838.28;5065574;28;1387;-53
2023/10/25 11:10:51;;;;;;;;;;;;;;;16.08;47.47;99838.16;5090551;28;1008;-48
2023/10/25 11:13:17;;;;;;;;;;;;;;;16.07;47.64;99832.97;5087641;28;1077;-51
2023/10/25 11:15:42;;;;;;;;;;;;;;;16.01;47.63;99832.19;5096032;28;1279;-54
2023/10/25 11:18:08;;;;;;;;;;;;;;;16.05;47.52;99832.44;5084568;28;1906;-51
2023/10/25 11:20:34;;;;;;;;;;;;;;;16.06;47.51;99837.63;5091202;28;1089;-52
2023/10/25 11:22:59;;;;;;;;;;;;;;;15.96;47.60;99825.97;5083860;28;1064;-56
2023/10/25 11:25:27;;;;;;;;;;;;;;;16.02;47.48;99839.31;5086297;28;1578;-54
2023/10/25 11:27:55;;;;;;;;;;;;;;;16.13;47.41;99833.72;5081607;28;921;-52
2023/10/25 11:30:21;;;;;;;;;;;;;;;16.15;47.08;99837.00;5096401;28;1538;-53
2023/10/25 11:32:47;;;;;;;;;;;;;;;16.15;47.14;99826.81;5094032;28;1379;-46
2023/10/25 11:35:23;;;;;;;;;;;;;;;16.13;46.89;99828.22;5084345;28;1236;-53
2023/10/25 11:37:48;;;;;;;;;;;;;;;16.20;46.82;99839.66;5084903;28;1906;-49
2023/10/25 11:40:14;;;;;;;;;;;;;;;16.88;49.16;99837.63;5064707;28;1197;-49
2023/10/25 11:42:40;;;;;;;;;;;;;;;16.60;49.36;99845.72;5086913;28;1033;-53
2023/10/25 11:45:06;;;;;;;;;;;;;;;16.60;48.95;99842.97;5087907;28;1305;-52
2023/10/25 11:47:35;;;;;;;;;;;;;;;16.48;48.36;99834.34;5090343;28;1047;-52
2023/10/25 11:50:01;;;;;;;;;;;;;;;16.43;47.55;99838.78;5094347;28;1139;-52
2023/10/25 11:52:27;;;;;;;;;;;;;;;17.10;49.72;99826.84;5095634;28;1221;-53
2023/10/25 11:54:56;;;;;;;;;;;;;;;16.69;49.58;99830.22;5094148;28;1295;-52
2023/10/25 11:57:25;;;;;;;;;;;;;;;16.57;48.50;99836.13;5095372;28;1977;-55
2023/10/25 11:59:50;;;;;;;;;;;;;;;16.63;47.77;99830.56;5086778;28;1328;-53
2023/10/25 12:02:18;;;;;;;;;;;;;;;16.62;47.13;99829.78;5091010;28;1284;-54
2023/10/25 12:04:44;;;;;;;;;;;;;;;16.51;47.18;99840.06;5097419;28;1493;-52
2023/10/25 12:07:10;;;;;;;;;;;;;;;16.50;47.23;99838.44;5101264;28;1216;-53
2023/10/25 12:09:38;;;;;;;;;;;;;;;16.53;46.65;99837.03;5099628;28;1413;-53
2023/10/25 12:12:04;;;;;;;;;;;;;;;16.49;46.74;99830.50;5091372;28;1173;-47
2023/10/25 12:14:29;;;;;;;;;;;;;;;17.19;48.35;99826.97;5094005;28;1058;-55
2023/10/25 12:16:55;;;;;;;;;;;;;;;16.85;48.43;99827.22;5099811;28;1909;-52
2023/10/25 12:19:20;;;;;;;;;;;;;;;16.67;47.96;99826.94;5098364;28;1061;-53
2023/10/25 12:21:46;;;;;;;;;;;;;;;16.58;47.82;99828.72;5079847;28;1106;-55
2023/10/25 12:24:11;;;;;;;;;;;;;;;16.61;47.21;99833.63;5082603;28;1079;-55
2023/10/25 12:26:37;;;;;;;;;;;;;;;16.66;46.79;99822.56;5079963;28;1149;-54
2023/10/25 12:29:02;;;;;;;;;;;;;;;16.57;46.72;99838.06;5097094;28;1113;-55
2023/10/25 12:31:28;;;;;;;;;;;;;;;16.64;47.00;99821.25;5099604;28;1113;-52
2023/10/25 12:33:53;;;;;;;;;;;;;;;16.59;46.65;99822.09;5088468;28;1181;-48
2023/10/25 12:36:19;;;;;;;;;;;;;;;16.58;46.57;99813.06;5090329;28;1909;-55
2023/10/25 12:38:45;;;;;;;;;;;;;;;16.53;46.33;99815.06;5095851;28;1066;-54
2023/10/25 12:41:10;;;;;;;;;;;;;;;16.52;46.47;99811.53;5099327;28;1346;-47
2023/10/25 12:43:36;;;;;;;;;;;;;;;16.52;46.09;99819.75;5085976;28;1397;-53
2023/10/25 12:46:01;;;;;;;;;;;;;;;16.48;46.27;99826.13;5098869;28;1070;-53